Time;durP1;ratioP1;P1;durP2;ratioP2;P2;SDS_P1;SDS_P2;PMS_P1;PMS_P2;Temp;Humidity;BMP_temperature;BMP_pressure;BME280_temperature;BME280_humidity;BME280_pressure;Samples;Min_cycle;Max_cycle;Signal;HPM_P1;HPM_P2
2024/01/25 00:01:51;;;;;;;19.40;3.80;;;;;;;;;;5033405;28;20053;-89
2024/01/25 00:04:19;;;;;;;17.55;3.55;;;;;;;;;;5024718;28;20068;-89
2024/01/25 00:06:46;;;;;;;19.17;3.50;;;;;;;;;;5024404;28;20049;-89
2024/01/25 00:09:14;;;;;;;17.50;4.30;;;;;;;;;;5023319;28;20502;-89
2024/01/25 00:11:41;;;;;;;18.95;4.03;;;;;;;;;;5021138;28;20481;-89
2024/01/25 00:14:08;;;;;;;19.98;3.50;;;;;;;;;;5030507;28;20049;-89
2024/01/25 00:16:36;;;;;;;19.88;3.47;;;;;;;;;;5024669;28;20450;-89
2024/01/25 00:19:03;;;;;;;12.07;2.95;;;;;;;;;;5024512;28;20108;-89
2024/01/25 00:21:30;;;;;;;17.33;3.60;;;;;;;;;;5024893;28;20057;-90
2024/01/25 00:23:58;;;;;;;19.02;3.65;;;;;;;;;;5025242;28;20120;-89
2024/01/25 00:26:25;;;;;;;17.52;2.95;;;;;;;;;;5024075;28;20065;-89
2024/01/25 00:28:52;;;;;;;22.83;3.72;;;;;;;;;;5024635;28;20103;-89
2024/01/25 00:31:19;;;;;;;22.02;3.60;;;;;;;;;;5024190;28;20403;-89
2024/01/25 00:33:47;;;;;;;22.40;3.75;;;;;;;;;;5023958;28;20103;-89
2024/01/25 00:36:15;;;;;;;15.13;3.35;;;;;;;;;;5022476;28;20063;-89
2024/01/25 00:38:42;;;;;;;14.80;3.58;;;;;;;;;;5026448;28;20111;-89
2024/01/25 00:41:10;;;;;;;17.85;3.17;;;;;;;;;;5023432;28;20514;-89
2024/01/25 00:43:37;;;;;;;23.67;4.15;;;;;;;;;;5021060;28;20568;-89
2024/01/25 00:46:04;;;;;;;17.67;3.40;;;;;;;;;;5020918;28;20510;-90
2024/01/25 00:48:32;;;;;;;12.70;3.22;;;;;;;;;;5023889;28;20528;-89
2024/01/25 00:50:59;;;;;;;17.77;3.33;;;;;;;;;;5023345;28;20057;-89
2024/01/25 00:53:27;;;;;;;17.25;3.60;;;;;;;;;;5021073;28;20050;-89
2024/01/25 00:55:54;;;;;;;15.85;3.63;;;;;;;;;;5027591;28;20135;-89
2024/01/25 00:58:22;;;;;;;18.10;3.50;;;;;;;;;;5032382;28;20045;-89
2024/01/25 01:00:49;;;;;;;20.20;3.28;;;;;;;;;;5024506;28;20056;-89
2024/01/25 01:03:19;;;;;;;20.20;3.40;;;;;;;;;;5040244;28;20049;-89
2024/01/25 01:05:46;;;;;;;15.80;2.83;;;;;;;;;;5022669;28;20104;-89
2024/01/25 01:08:14;;;;;;;19.92;4.03;;;;;;;;;;5022432;28;20107;-88
2024/01/25 01:10:41;;;;;;;14.45;3.17;;;;;;;;;;5024145;28;20056;-88
2024/01/25 01:13:08;;;;;;;15.48;3.20;;;;;;;;;;5023232;28;20075;-88
2024/01/25 01:15:35;;;;;;;18.65;3.00;;;;;;;;;;5025784;28;20050;-89
2024/01/25 01:18:05;;;;;;;17.13;3.58;;;;;;;;;;5023973;28;20490;-88
2024/01/25 01:20:32;;;;;;;11.93;3.05;;;;;;;;;;5024050;28;20077;-89
2024/01/25 01:23:00;;;;;;;24.33;3.78;;;;;;;;;;5024547;28;20517;-89
2024/01/25 01:25:27;;;;;;;21.40;4.07;;;;;;;;;;5028760;28;20501;-88
2024/01/25 01:27:54;;;;;;;18.02;3.45;;;;;;;;;;5020445;28;20085;-89
2024/01/25 01:30:22;;;;;;;15.95;3.13;;;;;;;;;;5023049;28;20053;-89
2024/01/25 01:32:49;;;;;;;18.65;3.08;;;;;;;;;;5023984;28;20475;-88
2024/01/25 01:35:17;;;;;;;15.23;3.15;;;;;;;;;;5021555;28;20561;-89
2024/01/25 01:37:45;;;;;;;16.67;3.67;;;;;;;;;;5020232;28;20057;-89
2024/01/25 01:40:12;;;;;;;18.00;3.45;;;;;;;;;;5021623;28;20077;-88
2024/01/25 01:42:39;;;;;;;21.65;3.55;;;;;;;;;;5032773;28;20156;-89
2024/01/25 01:45:07;;;;;;;21.30;3.60;;;;;;;;;;5024120;28;20464;-89
2024/01/25 01:47:34;;;;;;;22.02;4.13;;;;;;;;;;5024728;28;20057;-88
2024/01/25 01:50:02;;;;;;;17.95;4.03;;;;;;;;;;5023858;28;20053;-88
2024/01/25 01:52:31;;;;;;;17.70;3.80;;;;;;;;;;5023590;28;20383;-87
2024/01/25 01:54:58;;;;;;;19.63;3.42;;;;;;;;;;5023231;28;20567;-89
2024/01/25 01:57:25;;;;;;;19.90;3.67;;;;;;;;;;5020449;28;20054;-88
2024/01/25 01:59:53;;;;;;;16.08;4.07;;;;;;;;;;5023138;28;20085;-88
2024/01/25 02:02:20;;;;;;;22.10;3.38;;;;;;;;;;5027280;28;20085;-89
2024/01/25 02:04:47;;;;;;;13.20;3.15;;;;;;;;;;5027154;28;20103;-88
2024/01/25 02:07:15;;;;;;;16.92;4.18;;;;;;;;;;5025192;28;20107;-88
2024/01/25 02:09:42;;;;;;;13.82;3.13;;;;;;;;;;5023443;28;20056;-89
2024/01/25 02:12:10;;;;;;;18.73;4.25;;;;;;;;;;5032687;28;20103;-88
2024/01/25 02:14:37;;;;;;;19.65;3.83;;;;;;;;;;5027269;28;20053;-88
2024/01/25 02:17:04;;;;;;;20.42;3.95;;;;;;;;;;5039867;28;20050;-89
2024/01/25 02:19:32;;;;;;;23.38;3.58;;;;;;;;;;5031995;28;20053;-89
2024/01/25 02:22:00;;;;;;;16.95;3.45;;;;;;;;;;5026470;28;20057;-89
2024/01/25 02:24:27;;;;;;;19.50;3.85;;;;;;;;;;5027764;28;20153;-89
2024/01/25 02:26:55;;;;;;;25.38;3.55;;;;;;;;;;5028486;28;20132;-89
2024/01/25 02:29:22;;;;;;;17.58;3.33;;;;;;;;;;5025973;28;20148;-88
2024/01/25 02:31:50;;;;;;;17.95;3.80;;;;;;;;;;5027482;28;20121;-88
2024/01/25 02:34:17;;;;;;;19.13;4.32;;;;;;;;;;5025258;28;20482;-89
2024/01/25 02:36:44;;;;;;;15.52;3.53;;;;;;;;;;5023599;28;20049;-88
2024/01/25 02:39:11;;;;;;;17.33;3.70;;;;;;;;;;5025385;28;20050;-88
2024/01/25 02:41:39;;;;;;;19.45;3.70;;;;;;;;;;5034863;28;20122;-89
2024/01/25 02:44:07;;;;;;;16.10;3.40;;;;;;;;;;5026888;28;20076;-89
2024/01/25 02:46:34;;;;;;;21.00;3.55;;;;;;;;;;5022785;28;20491;-89
2024/01/25 02:49:01;;;;;;;28.45;4.20;;;;;;;;;;5022642;28;20101;-88
2024/01/25 02:51:28;;;;;;;18.33;4.25;;;;;;;;;;5022702;28;20057;-89
2024/01/25 02:53:56;;;;;;;17.33;3.38;;;;;;;;;;5023509;28;20050;-89
2024/01/25 02:56:23;;;;;;;17.80;3.72;;;;;;;;;;5026518;28;20053;-89
2024/01/25 02:58:50;;;;;;;17.45;3.70;;;;;;;;;;5025996;28;20088;-89
2024/01/25 03:01:17;;;;;;;17.55;3.58;;;;;;;;;;5026188;28;20050;-88
2024/01/25 03:03:45;;;;;;;19.20;4.18;;;;;;;;;;5025726;28;20120;-89
2024/01/25 03:06:12;;;;;;;19.67;3.67;;;;;;;;;;5026818;28;20503;-89
2024/01/25 03:08:40;;;;;;;17.48;3.63;;;;;;;;;;5026095;28;20067;-89
2024/01/25 03:11:07;;;;;;;22.20;3.70;;;;;;;;;;5034097;28;20046;-89
2024/01/25 03:13:34;;;;;;;17.63;3.60;;;;;;;;;;5022536;28;20536;-88
2024/01/25 03:16:02;;;;;;;20.20;3.22;;;;;;;;;;5030128;28;20075;-89
2024/01/25 03:18:29;;;;;;;18.95;3.25;;;;;;;;;;5023099;28;20054;-89
2024/01/25 03:20:56;;;;;;;18.55;4.00;;;;;;;;;;5030875;28;20050;-89
2024/01/25 03:23:24;;;;;;;21.52;3.67;;;;;;;;;;5022740;28;20046;-89
2024/01/25 03:25:51;;;;;;;17.90;3.58;;;;;;;;;;5022061;28;20100;-89
2024/01/25 03:28:18;;;;;;;13.07;2.80;;;;;;;;;;5024765;28;20049;-89
2024/01/25 03:30:46;;;;;;;20.02;3.40;;;;;;;;;;5032902;28;20049;-89
2024/01/25 03:33:13;;;;;;;21.48;4.03;;;;;;;;;;5033326;28;20054;-89
2024/01/25 03:35:41;;;;;;;19.30;3.95;;;;;;;;;;5025254;28;20045;-89
2024/01/25 03:38:08;;;;;;;24.65;4.30;;;;;;;;;;5025425;28;20049;-89
2024/01/25 03:40:35;;;;;;;15.95;3.70;;;;;;;;;;5030073;28;20065;-88
2024/01/25 03:43:02;;;;;;;16.20;3.05;;;;;;;;;;5021599;28;20077;-88
2024/01/25 03:45:45;;;;;;;21.02;4.03;;;;;;;;;;5022561;28;20085;-89
2024/01/25 03:48:12;;;;;;;12.80;3.35;;;;;;;;;;5023277;28;20418;-89
2024/01/25 03:50:40;;;;;;;12.55;3.03;;;;;;;;;;5025854;28;20064;-89
2024/01/25 03:53:08;;;;;;;19.23;4.03;;;;;;;;;;5024308;28;20056;-89
2024/01/25 03:55:35;;;;;;;17.35;3.70;;;;;;;;;;5021321;28;20548;-89
2024/01/25 03:58:02;;;;;;;24.15;3.53;;;;;;;;;;5029875;28;20056;-89
2024/01/25 04:00:29;;;;;;;16.42;3.92;;;;;;;;;;5025232;28;20049;-89
2024/01/25 04:02:57;;;;;;;31.67;4.30;;;;;;;;;;5025795;28;20046;-89
2024/01/25 04:05:26;;;;;;;18.13;3.28;;;;;;;;;;5021907;28;20073;-88
2024/01/25 04:07:53;;;;;;;13.32;3.30;;;;;;;;;;5022379;28;20088;-89
2024/01/25 04:10:21;;;;;;;21.75;3.90;;;;;;;;;;5023493;28;20049;-88
2024/01/25 04:12:48;;;;;;;19.63;3.33;;;;;;;;;;5024483;28;20050;-89
2024/01/25 04:15:16;;;;;;;25.23;4.15;;;;;;;;;;5023007;28;20053;-88
2024/01/25 04:17:43;;;;;;;22.50;4.22;;;;;;;;;;5019605;28;20053;-89
2024/01/25 04:20:10;;;;;;;18.30;3.80;;;;;;;;;;5024492;28;20497;-89
2024/01/25 04:22:38;;;;;;;20.85;3.90;;;;;;;;;;5020166;28;20491;-88
2024/01/25 04:25:05;;;;;;;22.27;3.92;;;;;;;;;;5021298;28;20046;-89
2024/01/25 04:27:33;;;;;;;24.40;3.58;;;;;;;;;;5025575;28;20548;-89
2024/01/25 04:30:03;;;;;;;14.93;3.17;;;;;;;;;;5024999;28;20185;-89
2024/01/25 04:32:30;;;;;;;22.15;4.15;;;;;;;;;;5028777;28;20552;-89
2024/01/25 04:34:58;;;;;;;20.95;3.83;;;;;;;;;;5022258;28;20045;-89
2024/01/25 04:37:26;;;;;;;23.85;3.63;;;;;;;;;;5032560;28;20061;-89
2024/01/25 04:39:53;;;;;;;20.67;4.07;;;;;;;;;;5024589;28;20507;-88
2024/01/25 04:42:33;;;;;;;22.02;3.92;;;;;;;;;;5074041;28;20966;-83
2024/01/25 04:45:00;;;;;;;24.73;3.97;;;;;;;;;;5072742;28;20083;-83
2024/01/25 04:47:28;;;;;;;13.98;3.35;;;;;;;;;;5072765;28;20419;-83
2024/01/25 04:49:55;;;;;;;24.98;4.00;;;;;;;;;;5072771;28;20045;-83
2024/01/25 04:52:22;;;;;;;20.85;3.97;;;;;;;;;;5072177;28;20055;-83
2024/01/25 04:54:50;;;;;;;15.45;3.53;;;;;;;;;;5043820;22;20451;-82
2024/01/25 04:57:17;;;;;;;21.15;3.78;;;;;;;;;;5009399;28;20138;-82
2024/01/25 04:59:44;;;;;;;16.95;3.97;;;;;;;;;;5010678;28;20049;-82
2024/01/25 05:02:11;;;;;;;23.17;3.95;;;;;;;;;;5009280;28;20046;-82
2024/01/25 05:04:39;;;;;;;19.55;4.18;;;;;;;;;;5009323;28;20047;-82
2024/01/25 05:07:09;;;;;;;26.50;4.45;;;;;;;;;;5010400;28;20129;-82
2024/01/25 05:09:36;;;;;;;21.73;3.28;;;;;;;;;;5009491;28;20500;-82
2024/01/25 05:12:04;;;;;;;19.13;3.85;;;;;;;;;;5009806;28;20076;-81
2024/01/25 05:14:31;;;;;;;17.45;3.15;;;;;;;;;;5010196;28;20050;-82
2024/01/25 05:16:59;;;;;;;18.98;4.72;;;;;;;;;;5010041;28;20042;-81
2024/01/25 05:19:26;;;;;;;20.02;3.78;;;;;;;;;;5010126;28;20054;-82
2024/01/25 05:21:53;;;;;;;29.08;9.10;;;;;;;;;;5008724;28;20046;-82
2024/01/25 05:24:20;;;;;;;14.85;3.40;;;;;;;;;;5008937;28;20043;-82
2024/01/25 05:26:48;;;;;;;29.10;8.82;;;;;;;;;;5009207;28;20054;-82
2024/01/25 05:29:16;;;;;;;21.73;5.38;;;;;;;;;;5009112;28;20046;-81
2024/01/25 05:31:43;;;;;;;17.98;5.30;;;;;;;;;;5006402;28;20424;-82
2024/01/25 05:34:11;;;;;;;24.75;4.68;;;;;;;;;;5013225;28;20078;-83
2024/01/25 05:36:38;;;;;;;17.50;3.80;;;;;;;;;;5017487;28;20050;-83
2024/01/25 05:39:06;;;;;;;23.08;3.13;;;;;;;;;;5022799;28;20081;-83
2024/01/25 05:41:34;;;;;;;18.85;2.83;;;;;;;;;;5015043;28;20069;-82
2024/01/25 05:44:01;;;;;;;17.75;3.00;;;;;;;;;;5014881;28;20050;-83
2024/01/25 05:46:28;;;;;;;16.58;3.35;;;;;;;;;;5012822;28;20057;-83
2024/01/25 05:48:55;;;;;;;23.55;3.47;;;;;;;;;;5014539;28;20053;-83
2024/01/25 05:51:23;;;;;;;15.77;3.00;;;;;;;;;;5013680;28;20054;-83
2024/01/25 05:53:50;;;;;;;17.42;2.92;;;;;;;;;;5000203;28;20054;-83
2024/01/25 05:56:17;;;;;;;18.42;3.22;;;;;;;;;;5008537;28;20504;-83
2024/01/25 05:58:45;;;;;;;11.35;2.35;;;;;;;;;;5000177;28;20054;-83
2024/01/25 06:01:12;;;;;;;16.95;2.80;;;;;;;;;;4998269;28;20046;-83
2024/01/25 06:03:39;;;;;;;13.15;2.67;;;;;;;;;;5007818;28;20515;-83
2024/01/25 06:06:07;;;;;;;13.40;2.72;;;;;;;;;;4999598;28;20453;-83
2024/01/25 06:08:35;;;;;;;16.63;3.00;;;;;;;;;;4998941;28;20054;-83
2024/01/25 06:11:03;;;;;;;13.30;2.72;;;;;;;;;;4998720;28;20061;-81
2024/01/25 06:13:31;;;;;;;14.18;2.72;;;;;;;;;;4998292;28;20062;-83
2024/01/25 06:15:59;;;;;;;15.75;2.88;;;;;;;;;;4998701;28;20129;-84
2024/01/25 06:18:27;;;;;;;12.02;2.53;;;;;;;;;;4999001;28;20054;-83
2024/01/25 06:20:55;;;;;;;17.42;2.92;;;;;;;;;;4998372;28;20042;-83
2024/01/25 06:23:22;;;;;;;15.13;2.45;;;;;;;;;;4998497;28;20509;-83
2024/01/25 06:25:49;;;;;;;17.98;3.60;;;;;;;;;;4995371;28;20050;-83
2024/01/25 06:28:18;;;;;;;13.48;3.03;;;;;;;;;;4996730;28;20543;-82
2024/01/25 06:30:45;;;;;;;24.95;7.32;;;;;;;;;;5002060;28;20046;-82
2024/01/25 06:33:12;;;;;;;17.58;5.82;;;;;;;;;;5003150;28;20050;-82
2024/01/25 06:35:40;;;;;;;21.67;4.53;;;;;;;;;;5004258;28;20394;-82
2024/01/25 06:38:07;;;;;;;29.40;5.00;;;;;;;;;;4997791;28;20512;-82
2024/01/25 06:40:34;;;;;;;19.75;3.17;;;;;;;;;;4994853;28;20046;-82
2024/01/25 06:43:01;;;;;;;14.68;2.53;;;;;;;;;;4994850;28;20046;-83
2024/01/25 06:45:29;;;;;;;17.55;2.72;;;;;;;;;;4994907;28;20520;-82
2024/01/25 06:47:56;;;;;;;17.48;2.90;;;;;;;;;;4994573;28;20129;-82
2024/01/25 06:50:24;;;;;;;24.55;3.10;;;;;;;;;;4994653;28;20042;-83
2024/01/25 06:52:53;;;;;;;13.70;2.60;;;;;;;;;;4994320;28;20054;-82
2024/01/25 06:55:20;;;;;;;21.63;3.80;;;;;;;;;;4994696;28;20058;-82
2024/01/25 06:57:48;;;;;;;10.93;2.20;;;;;;;;;;4994684;28;20129;-82
2024/01/25 07:00:15;;;;;;;19.38;2.58;;;;;;;;;;5003860;28;20054;-82
2024/01/25 07:02:44;;;;;;;12.50;2.72;;;;;;;;;;4993829;28;20046;-82
2024/01/25 07:05:12;;;;;;;14.57;2.55;;;;;;;;;;4993374;28;20433;-83
2024/01/25 07:07:40;;;;;;;17.52;2.45;;;;;;;;;;4996135;28;20433;-82
2024/01/25 07:10:07;;;;;;;13.20;2.55;;;;;;;;;;5002314;28;20568;-83
2024/01/25 07:12:35;;;;;;;13.82;2.75;;;;;;;;;;4994522;28;20054;-82
2024/01/25 07:15:02;;;;;;;16.23;3.63;;;;;;;;;;4994282;28;20054;-82
2024/01/25 07:17:30;;;;;;;14.90;2.95;;;;;;;;;;4994304;28;20120;-82
2024/01/25 07:19:58;;;;;;;21.83;3.20;;;;;;;;;;4994943;28;20057;-82
2024/01/25 07:22:25;;;;;;;18.10;3.38;;;;;;;;;;5003359;28;20134;-82
2024/01/25 07:24:53;;;;;;;19.58;2.95;;;;;;;;;;4993935;28;20058;-83
2024/01/25 07:27:20;;;;;;;8.30;2.17;;;;;;;;;;4995051;28;20433;-83
2024/01/25 07:29:47;;;;;;;14.07;2.45;;;;;;;;;;4993579;28;20113;-83
2024/01/25 07:32:14;;;;;;;24.27;3.05;;;;;;;;;;4994005;28;20142;-82
2024/01/25 07:34:42;;;;;;;17.15;2.88;;;;;;;;;;4998909;28;20049;-82
2024/01/25 07:37:11;;;;;;;10.18;2.22;;;;;;;;;;4996382;28;20124;-82
2024/01/25 07:39:38;;;;;;;13.77;3.00;;;;;;;;;;4993680;28;20054;-82
2024/01/25 07:42:05;;;;;;;8.35;2.28;;;;;;;;;;5001822;28;20050;-83
2024/01/25 07:44:33;;;;;;;13.98;2.60;;;;;;;;;;4993800;28;20047;-83
2024/01/25 07:47:00;;;;;;;16.83;2.88;;;;;;;;;;4993765;28;20042;-83
2024/01/25 07:49:27;;;;;;;11.23;2.45;;;;;;;;;;5001356;28;20073;-83
2024/01/25 07:52:01;;;;;;;19.98;2.50;;;;;;;;;;4994410;28;20050;-84
2024/01/25 07:54:34;;;;;;;10.73;1.98;;;;;;;;;;4999087;28;20064;-83
2024/01/25 07:57:02;;;;;;;16.23;2.38;;;;;;;;;;4998362;28;20460;-83
2024/01/25 07:59:29;;;;;;;14.32;2.65;;;;;;;;;;5002976;28;20051;-83
2024/01/25 08:01:56;;;;;;;17.80;2.80;;;;;;;;;;4994042;28;20062;-81
2024/01/25 08:04:24;;;;;;;20.02;3.22;;;;;;;;;;4994149;28;20043;-83
2024/01/25 08:06:52;;;;;;;11.65;2.28;;;;;;;;;;4990743;28;20423;-83
2024/01/25 08:09:19;;;;;;;7.00;1.73;;;;;;;;;;4990799;28;20046;-82
2024/01/25 08:11:47;;;;;;;9.98;2.10;;;;;;;;;;4991293;28;20100;-83
2024/01/25 08:14:16;;;;;;;16.17;2.97;;;;;;;;;;4996137;28;20501;-82
2024/01/25 08:16:45;;;;;;;14.90;2.58;;;;;;;;;;5010543;28;20054;-84
2024/01/25 08:19:13;;;;;;;7.45;2.10;;;;;;;;;;4998734;28;20133;-83
2024/01/25 08:21:40;;;;;;;12.55;2.30;;;;;;;;;;5003345;28;20050;-84
2024/01/25 08:24:08;;;;;;;18.27;2.80;;;;;;;;;;5003921;28;20049;-83
2024/01/25 08:26:35;;;;;;;15.80;2.90;;;;;;;;;;4996708;28;20054;-84
2024/01/25 08:29:03;;;;;;;12.52;2.92;;;;;;;;;;4995473;28;20046;-83
2024/01/25 08:31:30;;;;;;;13.23;2.35;;;;;;;;;;4995946;28;20054;-84
2024/01/25 08:33:58;;;;;;;12.70;2.65;;;;;;;;;;5003863;28;20054;-84
2024/01/25 08:36:25;;;;;;;11.02;2.10;;;;;;;;;;4995100;28;20134;-84
2024/01/25 08:38:53;;;;;;;9.07;2.30;;;;;;;;;;4995751;28;20054;-84
2024/01/25 08:41:20;;;;;;;11.82;2.20;;;;;;;;;;4997813;28;20050;-84
2024/01/25 08:43:47;;;;;;;21.00;2.92;;;;;;;;;;5000626;28;20046;-84
2024/01/25 08:46:15;;;;;;;13.43;2.40;;;;;;;;;;4995281;28;20073;-83
2024/01/25 08:48:43;;;;;;;10.13;2.00;;;;;;;;;;5008721;28;20070;-83
2024/01/25 08:51:11;;;;;;;8.45;2.00;;;;;;;;;;5011693;28;20051;-83
2024/01/25 08:53:38;;;;;;;10.60;1.90;;;;;;;;;;5002458;28;20061;-83
2024/01/25 08:56:05;;;;;;;8.73;1.98;;;;;;;;;;5000649;28;20058;-83
2024/01/25 08:58:33;;;;;;;7.63;1.83;;;;;;;;;;5006057;28;20101;-84
2024/01/25 09:01:00;;;;;;;9.80;2.15;;;;;;;;;;4999558;28;20069;-84
2024/01/25 09:03:27;;;;;;;8.85;1.95;;;;;;;;;;4999778;28;20523;-84
2024/01/25 09:05:55;;;;;;;10.98;2.17;;;;;;;;;;4997332;28;20050;-85
2024/01/25 09:08:22;;;;;;;10.52;2.35;;;;;;;;;;4997200;28;20093;-83
2024/01/25 09:10:50;;;;;;;8.85;1.83;;;;;;;;;;4998794;28;20050;-84
2024/01/25 09:13:17;;;;;;;11.82;2.22;;;;;;;;;;4997202;28;20058;-84
2024/01/25 09:15:46;;;;;;;12.25;2.67;;;;;;;;;;4997306;28;20078;-84
2024/01/25 09:18:14;;;;;;;9.50;1.70;;;;;;;;;;4996926;28;20060;-83
2024/01/25 09:20:47;;;;;;;13.45;2.45;;;;;;;;;;4995961;28;20051;-84
2024/01/25 09:23:16;;;;;;;10.38;2.03;;;;;;;;;;4996058;28;20054;-84
2024/01/25 09:25:46;;;;;;;9.13;1.67;;;;;;;;;;4996619;28;20390;-84
2024/01/25 09:28:14;;;;;;;5.32;1.90;;;;;;;;;;4997734;28;20050;-83
2024/01/25 09:30:42;;;;;;;8.65;2.53;;;;;;;;;;5000387;28;20046;-84
2024/01/25 09:33:10;;;;;;;12.07;1.90;;;;;;;;;;4999315;28;20054;-83
2024/01/25 09:35:37;;;;;;;12.40;2.30;;;;;;;;;;4999388;28;20054;-84
2024/01/25 09:38:05;;;;;;;10.35;1.65;;;;;;;;;;4997970;28;20108;-83
2024/01/25 09:40:33;;;;;;;9.85;2.30;;;;;;;;;;4998001;28;20050;-83
2024/01/25 09:43:00;;;;;;;7.78;1.50;;;;;;;;;;5006224;28;20507;-84
2024/01/25 09:45:28;;;;;;;10.38;1.83;;;;;;;;;;4997524;28;20046;-84
2024/01/25 09:47:56;;;;;;;12.40;2.00;;;;;;;;;;4997344;28;20046;-84
2024/01/25 09:50:23;;;;;;;7.82;1.50;;;;;;;;;;4996785;28;20054;-83
2024/01/25 09:52:57;;;;;;;8.25;1.55;;;;;;;;;;4996908;28;20054;-84
2024/01/25 09:55:26;;;;;;;11.25;1.60;;;;;;;;;;5005563;28;20133;-85
2024/01/25 09:57:56;;;;;;;8.05;1.70;;;;;;;;;;4997578;28;20060;-84
2024/01/25 10:00:24;;;;;;;13.13;2.72;;;;;;;;;;4997168;28;20142;-84
2024/01/25 10:02:51;;;;;;;8.70;1.83;;;;;;;;;;5003072;28;20104;-84
2024/01/25 10:05:18;;;;;;;11.60;2.08;;;;;;;;;;4999880;28;20046;-83
2024/01/25 10:07:46;;;;;;;7.53;1.73;;;;;;;;;;4997139;28;20129;-84
2024/01/25 10:10:14;;;;;;;9.10;1.70;;;;;;;;;;5004599;28;20467;-83
2024/01/25 10:12:42;;;;;;;6.78;1.33;;;;;;;;;;4997070;28;20109;-83
2024/01/25 10:15:10;;;;;;;11.10;2.10;;;;;;;;;;4997605;28;20050;-84
2024/01/25 10:17:39;;;;;;;9.57;1.52;;;;;;;;;;5008217;28;20053;-84
2024/01/25 10:20:26;;;;;;;6.85;1.70;;;;;;;;;;4996551;28;20136;-84
2024/01/25 10:22:58;;;;;;;7.15;1.73;;;;;;;;;;4996299;28;20141;-84
2024/01/25 10:25:27;;;;;;;5.22;1.40;;;;;;;;;;5004568;28;20514;-83
2024/01/25 10:27:55;;;;;;;5.53;1.70;;;;;;;;;;4995814;28;20405;-84
2024/01/25 10:30:24;;;;;;;8.70;2.08;;;;;;;;;;4996056;28;20057;-83
2024/01/25 10:32:52;;;;;;;6.13;1.80;;;;;;;;;;4995943;28;20476;-85
2024/01/25 10:35:21;;;;;;;9.95;1.80;;;;;;;;;;4997398;28;20050;-85
2024/01/25 10:37:52;;;;;;;7.45;1.95;;;;;;;;;;4995877;28;20077;-85
2024/01/25 10:40:19;;;;;;;8.32;1.92;;;;;;;;;;4995242;28;20527;-83
2024/01/25 10:42:47;;;;;;;12.35;2.00;;;;;;;;;;4996615;28;20051;-85
2024/01/25 10:45:15;;;;;;;6.15;1.80;;;;;;;;;;4997424;28;20088;-85
2024/01/25 10:47:44;;;;;;;12.07;2.55;;;;;;;;;;4995360;28;20050;-85
2024/01/25 10:50:13;;;;;;;11.57;4.22;;;;;;;;;;4995240;28;20432;-85
2024/01/25 10:52:42;;;;;;;9.80;2.70;;;;;;;;;;4993542;28;20497;-85
2024/01/25 10:55:10;;;;;;;8.63;2.13;;;;;;;;;;5024169;22;20082;-80
2024/01/25 10:57:37;;;;;;;15.02;2.45;;;;;;;;;;5002459;28;20049;-81
2024/01/25 11:00:10;;;;;;;10.10;2.38;;;;;;;;;;5004280;28;20046;-80
2024/01/25 11:02:39;;;;;;;9.30;2.42;;;;;;;;;;5004515;28;20501;-80
2024/01/25 11:05:11;;;;;;;8.65;2.05;;;;;;;;;;5021745;28;20042;-80
2024/01/25 11:07:42;;;;;;;10.15;2.03;;;;;;;;;;5015772;28;20056;-80
2024/01/25 11:10:14;;;;;;;7.68;2.33;;;;;;;;;;5020668;28;20080;-81
2024/01/25 11:12:58;;;;;;;6.13;1.60;;;;;;;;;;5020235;28;20064;-80
2024/01/25 11:15:33;;;;;;;11.80;2.10;;;;;;;;;;5021045;28;20045;-81
2024/01/25 11:18:02;;;;;;;7.60;1.88;;;;;;;;;;5017423;28;20068;-81
2024/01/25 11:20:30;;;;;;;8.60;1.98;;;;;;;;;;5006097;28;20508;-81
2024/01/25 11:22:59;;;;;;;8.75;2.28;;;;;;;;;;5022752;28;20042;-80
2024/01/25 11:25:30;;;;;;;9.18;1.90;;;;;;;;;;5022470;28;20046;-81
2024/01/25 11:27:58;;;;;;;7.75;1.65;;;;;;;;;;5022767;28;20100;-81
2024/01/25 11:30:29;;;;;;;9.20;1.70;;;;;;;;;;5004845;28;20037;-81
2024/01/25 11:32:56;;;;;;;6.55;1.65;;;;;;;;;;4992234;28;20050;-81
2024/01/25 11:35:24;;;;;;;8.05;1.83;;;;;;;;;;4993114;28;20418;-81
2024/01/25 11:37:53;;;;;;;9.40;1.77;;;;;;;;;;4994763;28;20073;-81
2024/01/25 11:40:21;;;;;;;6.75;1.75;;;;;;;;;;5012295;28;20051;-81
2024/01/25 11:42:49;;;;;;;13.98;2.20;;;;;;;;;;5013601;28;20113;-81
2024/01/25 11:45:18;;;;;;;8.68;1.95;;;;;;;;;;5008490;28;20043;-80
2024/01/25 11:47:45;;;;;;;5.30;1.60;;;;;;;;;;4989864;28;20042;-81
2024/01/25 11:50:13;;;;;;;10.13;2.08;;;;;;;;;;4990798;28;20129;-80
2024/01/25 11:52:40;;;;;;;8.85;1.88;;;;;;;;;;5010442;28;20053;-81
2024/01/25 11:55:09;;;;;;;7.07;1.77;;;;;;;;;;5022939;28;20101;-81
2024/01/25 11:57:38;;;;;;;10.55;2.17;;;;;;;;;;5023120;28;20058;-81
2024/01/25 12:00:06;;;;;;;7.28;1.48;;;;;;;;;;5016268;28;20076;-81
2024/01/25 12:02:33;;;;;;;7.40;1.60;;;;;;;;;;5020945;28;20045;-81
2024/01/25 12:05:02;;;;;;;11.98;2.30;;;;;;;;;;5028948;28;20050;-82
2024/01/25 12:07:31;;;;;;;5.97;1.50;;;;;;;;;;5025329;28;20050;-82
2024/01/25 12:10:03;;;;;;;5.15;1.55;;;;;;;;;;5018250;28;20105;-82
2024/01/25 12:12:31;;;;;;;8.27;1.60;;;;;;;;;;5018727;28;20172;-82
2024/01/25 12:14:58;;;;;;;6.38;1.23;;;;;;;;;;5004022;28;20050;-82
2024/01/25 12:17:29;;;;;;;7.70;2.28;;;;;;;;;;5005594;28;20475;-82
2024/01/25 12:19:57;;;;;;;9.27;1.55;;;;;;;;;;5006907;28;20050;-82
2024/01/25 12:22:28;;;;;;;9.20;1.98;;;;;;;;;;4987758;28;20052;-82
2024/01/25 12:24:56;;;;;;;8.48;2.15;;;;;;;;;;4991620;28;20417;-82
2024/01/25 12:27:27;;;;;;;9.98;1.75;;;;;;;;;;5031984;28;20073;-81
2024/01/25 12:29:54;;;;;;;14.88;2.33;;;;;;;;;;4994984;28;20038;-82
2024/01/25 12:32:21;;;;;;;9.75;3.08;;;;;;;;;;5022874;28;20104;-81
2024/01/25 12:35:00;;;;;;;5.50;1.65;;;;;;;;;;5016960;28;20046;-82
2024/01/25 12:37:28;;;;;;;9.15;2.25;;;;;;;;;;5017727;28;20092;-82
2024/01/25 12:39:56;;;;;;;32.95;3.38;;;;;;;;;;5009906;28;20119;-81
2024/01/25 12:42:23;;;;;;;8.65;1.90;;;;;;;;;;5008554;28;20065;-82
2024/01/25 12:44:53;;;;;;;11.48;1.70;;;;;;;;;;5004279;28;20676;-81
2024/01/25 12:47:20;;;;;;;10.90;1.85;;;;;;;;;;5011765;28;20497;-81
2024/01/25 12:49:48;;;;;;;8.25;1.98;;;;;;;;;;5017291;28;20049;-82
2024/01/25 12:52:16;;;;;;;8.35;1.77;;;;;;;;;;5014478;28;20053;-82
2024/01/25 12:54:44;;;;;;;10.75;2.60;;;;;;;;;;5012273;28;20065;-81
2024/01/25 12:57:11;;;;;;;10.50;2.47;;;;;;;;;;5009903;28;20054;-82
2024/01/25 12:59:39;;;;;;;13.50;2.28;;;;;;;;;;5010534;28;20046;-82
2024/01/25 13:02:07;;;;;;;8.20;1.90;;;;;;;;;;5007220;28;20049;-82
2024/01/25 13:04:34;;;;;;;10.45;2.67;;;;;;;;;;5015564;28;20074;-80
2024/01/25 13:07:02;;;;;;;7.95;2.10;;;;;;;;;;5013668;28;20073;-81
2024/01/25 13:09:33;;;;;;;28.67;3.67;;;;;;;;;;5019301;28;20042;-82
2024/01/25 13:12:01;;;;;;;11.73;2.05;;;;;;;;;;5005894;28;20053;-81
2024/01/25 13:14:28;;;;;;;7.38;1.83;;;;;;;;;;5013154;28;20054;-81
2024/01/25 13:16:55;;;;;;;4.18;1.20;;;;;;;;;;5002651;28;20050;-83
2024/01/25 13:19:23;;;;;;;11.30;1.95;;;;;;;;;;4994421;28;20081;-82
2024/01/25 13:21:51;;;;;;;6.38;1.95;;;;;;;;;;5010533;28;20050;-82
2024/01/25 13:24:19;;;;;;;5.60;2.00;;;;;;;;;;5026099;28;20053;-82
2024/01/25 13:26:47;;;;;;;9.63;2.00;;;;;;;;;;5021843;28;20085;-81
2024/01/25 13:29:14;;;;;;;10.63;1.98;;;;;;;;;;5021390;28;20133;-82
2024/01/25 13:31:41;;;;;;;8.68;1.83;;;;;;;;;;5023485;28;20057;-82
2024/01/25 13:34:08;;;;;;;7.57;1.75;;;;;;;;;;5022505;28;20497;-82
2024/01/25 13:36:36;;;;;;;7.32;1.98;;;;;;;;;;5023201;28;20464;-81
2024/01/25 13:39:03;;;;;;;10.55;2.72;;;;;;;;;;5024236;28;20050;-82
2024/01/25 13:41:30;;;;;;;14.93;2.08;;;;;;;;;;5024891;28;20133;-82
2024/01/25 13:43:58;;;;;;;30.80;4.03;;;;;;;;;;5024008;28;20132;-81
2024/01/25 13:46:25;;;;;;;22.75;2.72;;;;;;;;;;5021632;28;20049;-81
2024/01/25 13:48:53;;;;;;;53.53;5.40;;;;;;;;;;5022528;28;20053;-82
2024/01/25 13:51:20;;;;;;;11.90;2.45;;;;;;;;;;5021936;28;20458;-82
2024/01/25 13:53:49;;;;;;;7.28;1.90;;;;;;;;;;5020220;28;20076;-81
2024/01/25 13:56:16;;;;;;;12.50;2.33;;;;;;;;;;5020446;28;20054;-81
2024/01/25 13:58:43;;;;;;;14.05;3.53;;;;;;;;;;5019574;28;20058;-82
2024/01/25 14:01:11;;;;;;;10.77;1.92;;;;;;;;;;5018949;28;20132;-82
2024/01/25 14:03:39;;;;;;;10.25;2.10;;;;;;;;;;5020168;28;20069;-82
2024/01/25 14:06:11;;;;;;;30.48;4.00;;;;;;;;;;5018203;28;20050;-81
2024/01/25 14:08:39;;;;;;;7.85;1.77;;;;;;;;;;5018898;28;20125;-81
2024/01/25 14:11:06;;;;;;;13.55;2.53;;;;;;;;;;5018458;28;20112;-81
2024/01/25 14:13:34;;;;;;;12.48;2.40;;;;;;;;;;5019169;28;20077;-81
2024/01/25 14:16:01;;;;;;;11.98;2.65;;;;;;;;;;5018338;28;20497;-82
2024/01/25 14:18:29;;;;;;;8.70;2.10;;;;;;;;;;5017863;28;20125;-81
2024/01/25 14:20:57;;;;;;;10.57;2.13;;;;;;;;;;5018646;28;20061;-82
2024/01/25 14:23:24;;;;;;;9.70;2.25;;;;;;;;;;5018378;28;20057;-82
2024/01/25 14:25:52;;;;;;;15.48;2.60;;;;;;;;;;5016865;28;20053;-81
2024/01/25 14:28:19;;;;;;;10.70;2.88;;;;;;;;;;5016854;28;20080;-81
2024/01/25 14:30:46;;;;;;;10.10;2.10;;;;;;;;;;5019564;28;20424;-81
2024/01/25 14:33:14;;;;;;;9.43;2.40;;;;;;;;;;5017056;28;20056;-81
2024/01/25 14:35:42;;;;;;;7.95;1.95;;;;;;;;;;5019029;28;20081;-81
2024/01/25 14:38:10;;;;;;;24.38;3.53;;;;;;;;;;5017293;28;20054;-81